Time;durP1;ratioP1;P1;durP2;ratioP2;P2;SDS_P1;SDS_P2;PMS_P1;PMS_P2;Temp;Humidity;BMP_temperature;BMP_pressure;BME280_temperature;BME280_humidity;BME280_pressure;Samples;Min_cycle;Max_cycle;Signal;HPM_P1;HPM_P2
2023/02/08 00:01:13;;;;;;;20.55;11.05;;;-5.20;99.90;;;;;;4929550;28;20416;-82
2023/02/08 00:03:41;;;;;;;10.07;7.25;;;-5.20;99.90;;;;;;4936656;29;20047;-82
2023/02/08 00:06:12;;;;;;;7.13;4.15;;;-5.20;99.90;;;;;;4930607;29;20047;-81
2023/02/08 00:08:40;;;;;;;11.15;8.52;;;-5.20;99.90;;;;;;4941746;29;20050;-82
2023/02/08 00:11:09;;;;;;;7.57;6.30;;;-5.20;99.90;;;;;;4939094;29;20058;-82
2023/02/08 00:13:39;;;;;;;19.38;15.75;;;-5.20;99.90;;;;;;4944755;28;20058;-82
2023/02/08 00:16:11;;;;;;;12.07;10.05;;;-5.20;99.90;;;;;;4944762;29;20059;-82
2023/02/08 00:18:39;;;;;;;8.18;5.57;;;-5.20;99.90;;;;;;4933195;29;20066;-82
2023/02/08 00:21:12;;;;;;;12.82;9.35;;;-5.30;99.90;;;;;;4935590;28;20051;-82
2023/02/08 00:23:40;;;;;;;14.55;9.20;;;-5.30;99.90;;;;;;4929379;29;20051;-82
2023/02/08 00:26:08;;;;;;;15.20;9.65;;;-5.40;99.90;;;;;;4928524;29;20047;-82
2023/02/08 00:28:36;;;;;;;12.85;8.20;;;-5.40;99.90;;;;;;4930029;29;20054;-82
2023/02/08 00:31:04;;;;;;;19.83;13.73;;;-5.40;99.90;;;;;;4931508;29;20063;-82
2023/02/08 00:33:34;;;;;;;12.98;9.88;;;-5.50;99.90;;;;;;4937042;28;20063;-82
2023/02/08 00:36:04;;;;;;;18.33;10.82;;;-5.40;99.90;;;;;;4928375;29;20055;-82
2023/02/08 00:38:33;;;;;;;17.77;13.77;;;-5.40;99.90;;;;;;4948818;29;20039;-82
2023/02/08 00:41:01;;;;;;;10.18;8.30;;;-5.40;99.90;;;;;;4911391;29;20407;-82
2023/02/08 00:43:29;;;;;;;17.15;9.60;;;-5.30;99.90;;;;;;4928302;29;20047;-82
2023/02/08 00:45:58;;;;;;;10.35;7.93;;;-5.30;99.90;;;;;;4924126;28;20058;-82
2023/02/08 00:48:27;;;;;;;13.27;9.65;;;-5.30;99.90;;;;;;4932733;28;20046;-82
2023/02/08 00:50:59;;;;;;;13.38;9.20;;;-5.30;99.90;;;;;;4916867;29;20079;-82
2023/02/08 00:53:26;;;;;;;27.52;14.60;;;-5.40;99.90;;;;;;4913176;29;20048;-82
2023/02/08 00:55:55;;;;;;;29.30;12.95;;;-5.40;99.90;;;;;;4915086;29;20052;-82
2023/02/08 00:58:23;;;;;;;13.52;9.15;;;-5.50;99.90;;;;;;4927439;29;20047;-82
2023/02/08 01:00:52;;;;;;;18.42;10.15;;;-5.40;99.90;;;;;;4918240;29;20044;-82
2023/02/08 01:03:21;;;;;;;13.18;9.32;;;-5.40;99.90;;;;;;4916848;29;20059;-82
2023/02/08 01:05:49;;;;;;;13.55;11.43;;;-5.50;99.90;;;;;;4944162;29;20066;-82
2023/02/08 01:08:19;;;;;;;20.75;12.13;;;-5.60;99.90;;;;;;4915638;29;20050;-82
2023/02/08 01:10:47;;;;;;;9.18;6.03;;;-5.60;99.90;;;;;;4929365;29;20051;-82
2023/02/08 01:13:15;;;;;;;18.35;10.30;;;-5.70;99.90;;;;;;4923896;29;20051;-82
2023/02/08 01:15:42;;;;;;;21.65;12.07;;;-5.70;99.90;;;;;;4944373;29;20062;-82
2023/02/08 01:18:10;;;;;;;10.65;7.47;;;-5.70;99.90;;;;;;4886411;29;20048;-82
2023/02/08 01:20:38;;;;;;;19.98;9.88;;;-5.70;99.90;;;;;;4928998;28;20051;-82
2023/02/08 01:23:06;;;;;;;13.40;9.27;;;-5.70;99.90;;;;;;4927158;29;20059;-82
2023/02/08 01:25:34;;;;;;;18.95;9.57;;;-5.80;99.90;;;;;;4943286;28;20225;-82
2023/02/08 01:28:03;;;;;;;16.02;12.18;;;-5.80;99.90;;;;;;4896439;29;20058;-82
2023/02/08 01:30:31;;;;;;;22.85;11.30;;;-5.70;99.90;;;;;;4931425;29;20078;-82
2023/02/08 01:33:03;;;;;;;16.45;9.82;;;-5.70;99.90;;;;;;4939074;28;20035;-82
2023/02/08 01:35:31;;;;;;;5.20;4.20;;;-5.70;99.90;;;;;;4929321;29;20047;-82
2023/02/08 01:37:58;;;;;;;10.13;8.00;;;-5.70;99.90;;;;;;4946156;28;20055;-82
2023/02/08 01:40:26;;;;;;;12.32;8.50;;;-5.70;99.90;;;;;;4926666;28;20058;-82
2023/02/08 01:42:53;;;;;;;10.73;9.48;;;-5.70;99.90;;;;;;4925996;29;20055;-82
2023/02/08 01:45:28;;;;;;;16.48;10.93;;;-5.80;99.90;;;;;;4934529;28;20053;-82
2023/02/08 01:48:07;;;;;;;12.77;8.95;;;-5.70;99.90;;;;;;4929883;29;20047;-82
2023/02/08 01:51:03;;;;;;;10.63;7.60;;;-5.70;99.90;;;;;;4926816;29;20090;-82
2023/02/08 01:53:33;;;;;;;22.38;12.50;;;-5.70;99.90;;;;;;4915718;29;20039;-82
2023/02/08 01:56:05;;;;;;;14.00;6.85;;;-5.80;99.90;;;;;;4934562;29;20051;-82
2023/02/08 01:58:37;;;;;;;7.80;6.82;;;-5.80;99.90;;;;;;4912276;29;20053;-83
2023/02/08 02:01:07;;;;;;;27.25;16.10;;;-5.80;99.90;;;;;;4925819;29;20051;-83
2023/02/08 02:03:34;;;;;;;10.70;9.73;;;-5.70;99.90;;;;;;4931804;29;20047;-82
2023/02/08 02:06:11;;;;;;;17.33;8.98;;;-5.80;99.90;;;;;;4917154;29;20070;-82
2023/02/08 02:08:46;;;;;;;18.00;10.60;;;-5.70;99.90;;;;;;4926107;29;20047;-82
2023/02/08 02:11:14;;;;;;;8.85;7.28;;;-5.80;99.90;;;;;;4933035;29;20058;-82
2023/02/08 02:13:42;;;;;;;21.23;17.38;;;-5.80;99.90;;;;;;4943914;28;20135;-83
2023/02/08 02:16:10;;;;;;;21.63;12.23;;;-5.80;99.90;;;;;;4947785;29;20086;-82
2023/02/08 02:18:38;;;;;;;16.02;10.82;;;-5.80;99.90;;;;;;4933228;29;20055;-82
2023/02/08 02:21:28;;;;;;;14.98;12.00;;;-5.80;99.90;;;;;;4930787;29;20050;-82
2023/02/08 02:24:10;;;;;;;17.20;8.18;;;-5.90;99.90;;;;;;4947211;29;20113;-82
2023/02/08 02:27:04;;;;;;;9.77;8.88;;;-5.90;99.90;;;;;;4952791;29;20055;-82
2023/02/08 02:29:34;;;;;;;22.67;9.35;;;-5.90;99.90;;;;;;4930048;29;20051;-82
2023/02/08 02:32:24;;;;;;;7.13;6.03;;;-5.90;99.90;;;;;;4959794;28;20035;-82
2023/02/08 02:35:05;;;;;;;21.85;9.23;;;-5.90;99.90;;;;;;4929757;28;20288;-82
2023/02/08 02:37:56;;;;;;;17.40;9.05;;;-6.00;99.90;;;;;;4950857;28;20045;-82
2023/02/08 02:40:29;;;;;;;18.77;11.55;;;-6.00;99.90;;;;;;4943261;28;20063;-82
2023/02/08 02:46:02;;;;;;;14.82;10.30;;;-6.00;99.90;;;;;;4943008;29;20051;-82
2023/02/08 02:48:46;;;;;;;16.30;11.85;;;-6.00;99.90;;;;;;4953635;28;20038;-82
2023/02/08 02:51:20;;;;;;;25.90;10.95;;;-6.00;99.90;;;;;;4967599;28;20032;-82
2023/02/08 02:53:59;;;;;;;23.50;14.15;;;-6.00;99.90;;;;;;4953719;28;20035;-83
2023/02/08 02:56:33;;;;;;;13.85;9.85;;;-6.00;99.90;;;;;;4957010;28;20031;-82
2023/02/08 02:59:06;;;;;;;13.68;10.80;;;-6.00;99.90;;;;;;4962584;28;20035;-82
2023/02/08 03:01:34;;;;;;;20.08;10.32;;;-6.00;99.90;;;;;;4958045;28;20046;-82
2023/02/08 03:04:12;;;;;;;17.55;10.00;;;-6.00;99.90;;;;;;4968133;28;20036;-82
2023/02/08 03:06:58;;;;;;;10.93;9.27;;;-5.90;99.90;;;;;;4934915;29;20050;-82
2023/02/08 03:09:56;;;;;;;22.85;13.48;;;-5.90;99.90;;;;;;4965207;29;20271;-82
2023/02/08 03:12:43;;;;;;;12.90;11.55;;;-5.90;99.90;;;;;;4938518;28;20050;-82
2023/02/08 03:15:30;;;;;;;18.70;12.57;;;-5.90;99.90;;;;;;4942676;29;20513;-82
2023/02/08 03:18:16;;;;;;;9.75;8.77;;;-6.00;99.90;;;;;;4949048;28;20451;-82
2023/02/08 03:20:57;;;;;;;18.70;12.25;;;-6.00;99.90;;;;;;4923621;28;20061;-82
2023/02/08 03:23:29;;;;;;;20.25;11.10;;;-6.00;99.90;;;;;;4942554;29;20054;-82
2023/02/08 03:26:31;;;;;;;20.73;11.98;;;-6.00;99.90;;;;;;4913770;29;20059;-82
2023/02/08 03:29:15;;;;;;;7.05;6.43;;;-6.00;99.90;;;;;;4943050;28;20427;-82
2023/02/08 03:31:58;;;;;;;10.85;9.02;;;-6.10;99.90;;;;;;4927880;29;20055;-82
2023/02/08 03:34:38;;;;;;;13.00;10.52;;;-6.10;99.90;;;;;;4907151;29;20051;-82
2023/02/08 03:37:17;;;;;;;11.93;9.43;;;-6.10;99.90;;;;;;4944306;28;20047;-82
2023/02/08 03:39:49;;;;;;;16.05;11.10;;;-6.10;99.90;;;;;;4914574;29;20435;-82
2023/02/08 03:42:22;;;;;;;20.30;10.47;;;-6.10;99.90;;;;;;4930731;28;20242;-82
2023/02/08 03:45:01;;;;;;;16.10;11.18;;;-6.10;99.90;;;;;;4940754;28;20044;-82
2023/02/08 03:47:38;;;;;;;14.20;12.52;;;-6.10;99.90;;;;;;4935335;29;20624;-82
2023/02/08 03:50:09;;;;;;;17.88;11.88;;;-6.20;99.90;;;;;;4937092;29;20047;-82
2023/02/08 03:52:37;;;;;;;;;;;-6.20;99.90;;;;;;4931502;28;20058;-82
2023/02/08 03:55:11;;;;;;;19.85;10.25;;;-6.20;99.90;;;;;;4914472;29;19926;-82
2023/02/08 03:58:00;;;;;;;15.77;11.75;;;-6.20;99.90;;;;;;4930541;29;20047;-82
2023/02/08 04:00:32;;;;;;;14.18;8.60;;;-6.30;99.90;;;;;;4928060;28;20050;-82
2023/02/08 04:03:09;;;;;;;18.85;11.30;;;-6.30;99.90;;;;;;4925296;29;20051;-82
2023/02/08 04:05:37;;;;;;;13.00;9.00;;;-6.30;99.90;;;;;;4927773;29;20047;-82
2023/02/08 04:08:04;;;;;;;32.08;16.67;;;-6.30;99.90;;;;;;4912092;29;20053;-82
2023/02/08 04:10:33;;;;;;;24.25;12.50;;;-6.30;99.90;;;;;;4930483;29;20062;-82
2023/02/08 04:13:00;;;;;;;25.92;14.23;;;-6.30;99.90;;;;;;4898004;29;20047;-82
2023/02/08 04:15:29;;;;;;;18.58;10.75;;;-6.40;99.90;;;;;;4945200;29;20070;-82
2023/02/08 04:17:57;;;;;;;14.02;7.43;;;-6.40;99.90;;;;;;4942592;28;20500;-83
2023/02/08 04:20:24;;;;;;;19.35;12.95;;;-6.40;99.90;;;;;;4927428;28;20047;-82
2023/02/08 04:22:52;;;;;;;16.55;10.55;;;-6.40;99.90;;;;;;4912402;29;20051;-82
2023/02/08 04:25:19;;;;;;;16.42;10.95;;;-6.50;99.90;;;;;;4928943;29;20035;-82
2023/02/08 04:27:47;;;;;;;19.05;12.20;;;-6.50;99.90;;;;;;4928389;29;20059;-83
2023/02/08 04:30:15;;;;;;;19.73;12.23;;;-6.60;99.90;;;;;;4940289;28;20047;-83
2023/02/08 04:32:42;;;;;;;22.13;10.10;;;-6.60;99.90;;;;;;4920130;29;20293;-83
2023/02/08 04:35:10;;;;;;;24.63;15.57;;;-6.60;99.90;;;;;;4928121;29;20055;-83
2023/02/08 04:37:37;;;;;;;17.48;10.80;;;-6.60;99.90;;;;;;4928646;29;20051;-83
2023/02/08 04:40:06;;;;;;;19.95;13.70;;;-6.70;99.90;;;;;;4939497;29;20502;-81
2023/02/08 04:42:36;;;;;;;26.30;12.13;;;-6.70;99.90;;;;;;4931987;29;20056;-82
2023/02/08 04:45:04;;;;;;;21.88;11.77;;;-6.70;99.90;;;;;;4937555;28;20039;-82
2023/02/08 04:47:31;;;;;;;19.25;12.85;;;-6.70;99.90;;;;;;4948574;28;20075;-82
2023/02/08 04:49:59;;;;;;;13.20;11.73;;;-6.70;99.90;;;;;;4940952;29;20055;-82
2023/02/08 04:52:30;;;;;;;17.55;12.40;;;-6.70;99.90;;;;;;4912655;29;20051;-83
2023/02/08 04:54:57;;;;;;;19.83;12.02;;;-6.70;99.90;;;;;;4935992;29;20064;-83
2023/02/08 04:57:27;;;;;;;16.02;12.10;;;-6.80;99.90;;;;;;4912578;29;20047;-82
2023/02/08 04:59:55;;;;;;;9.38;8.52;;;-6.80;99.90;;;;;;4926732;29;20048;-82
2023/02/08 05:02:26;;;;;;;24.52;11.60;;;-6.70;99.90;;;;;;4931220;28;20046;-82
2023/02/08 05:04:54;;;;;;;19.00;12.48;;;-6.70;99.90;;;;;;4916350;29;20042;-82
2023/02/08 05:07:24;;;;;;;16.48;12.02;;;-6.70;99.90;;;;;;4937093;29;20055;-82
2023/02/08 05:09:52;;;;;;;25.38;16.50;;;-6.70;99.90;;;;;;4943635;29;20055;-82
2023/02/08 05:12:19;;;;;;;16.92;13.25;;;-6.70;99.90;;;;;;4922888;28;20052;-82
2023/02/08 05:14:47;;;;;;;7.00;6.38;;;-6.70;99.90;;;;;;4947518;28;20042;-82
2023/02/08 05:17:15;;;;;;;16.40;12.25;;;-6.70;99.90;;;;;;4950788;28;20049;-82
2023/02/08 05:19:42;;;;;;;17.33;13.85;;;-6.70;99.90;;;;;;4944803;28;20058;-82
2023/02/08 05:22:10;;;;;;;10.32;7.70;;;-6.70;99.90;;;;;;4944184;28;20039;-82
2023/02/08 05:24:37;;;;;;;23.25;14.57;;;-6.70;99.90;;;;;;4947180;28;20043;-82
2023/02/08 05:27:05;;;;;;;20.95;14.38;;;-6.70;99.90;;;;;;4927977;28;20404;-82
2023/02/08 05:29:32;;;;;;;24.67;15.90;;;-6.70;99.90;;;;;;4940544;29;20043;-82
2023/02/08 05:32:02;;;;;;;19.30;12.18;;;-6.70;99.90;;;;;;4929869;29;20047;-82
2023/02/08 05:34:30;;;;;;;30.13;16.20;;;-6.70;99.90;;;;;;4927550;28;20054;-81
2023/02/08 05:36:58;;;;;;;11.98;9.30;;;-6.70;99.90;;;;;;4929733;29;20043;-81
2023/02/08 05:39:26;;;;;;;14.05;11.60;;;-6.70;99.90;;;;;;4934433;29;20058;-81
2023/02/08 05:41:53;;;;;;;25.05;14.32;;;-6.70;99.90;;;;;;4946269;28;20054;-81
2023/02/08 05:44:24;;;;;;;18.35;13.85;;;-6.70;99.90;;;;;;4912376;28;20062;-82
2023/02/08 05:46:52;;;;;;;23.27;11.48;;;-6.70;99.90;;;;;;4929639;29;20048;-82
2023/02/08 05:49:19;;;;;;;12.25;6.57;;;-6.60;99.90;;;;;;4926885;29;20052;-82
2023/02/08 05:51:49;;;;;;;14.85;10.35;;;-6.60;99.90;;;;;;4948460;29;20050;-81
2023/02/08 05:54:17;;;;;;;24.15;14.45;;;-6.60;99.90;;;;;;4940889;28;20046;-81
2023/02/08 05:56:45;;;;;;;28.77;21.05;;;-6.70;99.90;;;;;;4930282;29;20121;-80
2023/02/08 05:59:12;;;;;;;14.35;12.65;;;-6.70;99.90;;;;;;4910986;29;20078;-82
2023/02/08 06:01:40;;;;;;;11.77;10.10;;;-6.70;99.90;;;;;;4919271;29;20050;-82
2023/02/08 06:04:08;;;;;;;24.33;19.27;;;-6.70;99.90;;;;;;4930463;29;20079;-82
2023/02/08 06:06:35;;;;;;;16.33;12.68;;;-6.70;99.90;;;;;;4946534;29;20046;-82
2023/02/08 06:09:03;;;;;;;22.92;10.50;;;-6.70;99.90;;;;;;4931894;28;20050;-82
2023/02/08 06:11:31;;;;;;;16.65;13.15;;;-6.70;99.90;;;;;;4927472;29;20058;-82
2023/02/08 06:13:58;;;;;;;17.08;14.95;;;-6.70;99.90;;;;;;4925673;28;20055;-81
2023/02/08 06:16:27;;;;;;;26.38;16.95;;;-6.80;99.90;;;;;;4942906;28;20050;-82
2023/02/08 06:18:55;;;;;;;14.23;10.30;;;-6.80;99.90;;;;;;4925622;29;20066;-81
2023/02/08 06:21:23;;;;;;;26.45;14.63;;;-6.80;99.90;;;;;;4925409;29;20051;-81
2023/02/08 06:23:52;;;;;;;17.65;14.63;;;-6.80;99.90;;;;;;4954958;28;20063;-81
2023/02/08 06:26:19;;;;;;;13.95;10.80;;;-6.80;99.90;;;;;;4938051;28;20035;-81
2023/02/08 06:28:47;;;;;;;14.63;12.88;;;-6.80;99.90;;;;;;4936217;28;20036;-81
2023/02/08 06:31:15;;;;;;;10.68;9.02;;;-6.80;99.90;;;;;;4938026;28;20047;-82
2023/02/08 06:33:43;;;;;;;22.67;12.20;;;-6.80;99.90;;;;;;4918277;29;20046;-83
2023/02/08 06:36:11;;;;;;;17.80;13.20;;;-6.80;99.90;;;;;;4930550;29;20058;-82
2023/02/08 06:38:39;;;;;;;28.75;20.02;;;-6.70;99.90;;;;;;4930124;29;20055;-82
2023/02/08 06:41:06;;;;;;;25.40;12.27;;;-6.80;99.90;;;;;;4909546;29;20253;-82
2023/02/08 06:43:34;;;;;;;17.73;14.95;;;-6.80;99.90;;;;;;4926605;29;20051;-82
2023/02/08 06:46:03;;;;;;;29.15;18.77;;;-6.80;99.90;;;;;;4925393;29;20044;-83
2023/02/08 06:48:31;;;;;;;25.38;20.83;;;-6.70;99.90;;;;;;4947032;29;20383;-83
2023/02/08 06:50:59;;;;;;;21.33;13.85;;;-6.70;99.90;;;;;;4926335;29;20055;-83
2023/02/08 06:53:27;;;;;;;26.55;16.67;;;-6.70;99.90;;;;;;4929642;29;20051;-83
2023/02/08 06:55:54;;;;;;;14.80;11.30;;;-6.60;99.90;;;;;;4930437;29;20070;-82
2023/02/08 06:58:22;;;;;;;16.50;14.35;;;-6.60;99.90;;;;;;4930243;29;20062;-83
2023/02/08 07:00:50;;;;;;;10.90;10.05;;;-6.60;99.90;;;;;;4941449;28;20054;-82
2023/02/08 07:03:17;;;;;;;31.20;22.30;;;-6.60;99.90;;;;;;4897691;29;20047;-82
2023/02/08 07:05:45;;;;;;;15.70;9.23;;;-6.60;99.90;;;;;;4933410;29;20062;-82
2023/02/08 07:08:33;;;;;;;30.55;20.33;;;-6.50;99.90;;;;;;4950411;28;20043;-82
2023/02/08 07:11:06;;;;;;;31.35;15.07;;;-6.50;99.90;;;;;;4952236;28;20070;-84
2023/02/08 07:13:36;;;;;;;28.65;24.20;;;-6.50;99.90;;;;;;4931284;29;20043;-83
2023/02/08 07:16:08;;;;;;;18.33;11.60;;;-6.50;99.90;;;;;;4948892;28;20047;-82
2023/02/08 07:18:36;;;;;;;13.63;12.40;;;-6.50;99.90;;;;;;4944440;29;20055;-82
2023/02/08 07:21:04;;;;;;;13.18;9.80;;;-6.40;99.90;;;;;;4919339;29;20043;-82
2023/02/08 07:23:33;;;;;;;35.13;27.13;;;-6.40;99.90;;;;;;4946096;29;20071;-82
2023/02/08 07:26:06;;;;;;;19.27;16.35;;;-6.40;99.90;;;;;;4924237;29;20090;-82
2023/02/08 07:28:35;;;;;;;33.72;18.55;;;-6.30;99.90;;;;;;4958257;28;20042;-82
2023/02/08 07:31:08;;;;;;;13.45;10.23;;;-6.30;99.90;;;;;;4940132;28;20065;-82
2023/02/08 07:33:36;;;;;;;25.67;17.55;;;-6.20;99.90;;;;;;4943648;28;20062;-83
2023/02/08 07:36:06;;;;;;;38.15;24.42;;;-6.20;99.90;;;;;;4917425;29;20055;-83
2023/02/08 07:38:34;;;;;;;21.90;15.57;;;-6.10;99.90;;;;;;4960084;28;20043;-82
2023/02/08 07:41:09;;;;;;;36.70;26.65;;;-6.10;99.90;;;;;;4961891;28;20046;-82
2023/02/08 07:43:38;;;;;;;14.73;13.15;;;-6.00;99.90;;;;;;4956667;28;20039;-82
2023/02/08 07:46:11;;;;;;;18.38;12.77;;;-6.00;99.90;;;;;;4955073;28;20027;-82
2023/02/08 07:48:39;;;;;;;34.28;24.23;;;-5.90;99.90;;;;;;4962347;28;20036;-83
2023/02/08 07:51:39;;;;;;;35.08;22.38;;;-5.90;99.90;;;;;;4957966;29;20719;-82
2023/02/08 07:54:06;;;;;;;31.23;21.30;;;-5.80;99.90;;;;;;4931414;29;20042;-82
2023/02/08 07:56:34;;;;;;;9.50;8.60;;;-5.80;99.90;;;;;;4970013;28;20035;-82
2023/02/08 07:59:02;;;;;;;34.15;20.02;;;-5.70;99.90;;;;;;4957549;29;20043;-83
2023/02/08 08:01:29;;;;;;;16.55;13.95;;;-5.50;99.90;;;;;;4956582;28;20031;-82
2023/02/08 08:03:57;;;;;;;26.75;18.30;;;-5.50;99.90;;;;;;4960621;28;20049;-82
2023/02/08 08:06:26;;;;;;;24.83;11.20;;;-5.40;99.90;;;;;;4955911;28;20051;-82
2023/02/08 08:08:53;;;;;;;18.85;14.20;;;-5.50;99.90;;;;;;4949874;29;20031;-82
2023/02/08 08:11:22;;;;;;;16.27;9.27;;;-5.40;99.90;;;;;;4952434;29;20031;-82
2023/02/08 08:13:50;;;;;;;36.92;21.65;;;-5.40;99.90;;;;;;4947848;28;20428;-83
2023/02/08 08:16:18;;;;;;;27.92;21.60;;;-5.40;99.90;;;;;;4938137;28;20097;-82
2023/02/08 08:18:47;;;;;;;17.27;11.68;;;-5.40;99.90;;;;;;4929797;29;20066;-82
2023/02/08 08:21:15;;;;;;;26.50;13.02;;;-5.40;99.90;;;;;;4937777;28;20043;-82
2023/02/08 08:23:43;;;;;;;22.13;14.55;;;-5.30;99.90;;;;;;4937873;28;20050;-82
2023/02/08 08:26:16;;;;;;;16.95;12.48;;;-5.30;99.90;;;;;;4933150;28;20055;-82
2023/02/08 08:28:45;;;;;;;35.63;21.73;;;-5.20;99.90;;;;;;4948398;28;20047;-83
2023/02/08 08:31:16;;;;;;;31.77;18.90;;;-5.30;99.90;;;;;;4919542;29;20051;-82
2023/02/08 08:33:44;;;;;;;21.17;12.15;;;-5.30;99.90;;;;;;4946187;28;20455;-82
2023/02/08 08:36:13;;;;;;;15.13;13.52;;;-5.30;99.90;;;;;;4926010;29;20043;-82
2023/02/08 08:38:40;;;;;;;20.55;12.52;;;-5.10;99.90;;;;;;4927384;29;20047;-82
2023/02/08 08:41:15;;;;;;;27.70;16.38;;;-5.10;99.90;;;;;;4932888;28;20054;-82
2023/02/08 08:43:44;;;;;;;26.92;14.23;;;-5.00;99.90;;;;;;4941912;29;20051;-82
2023/02/08 08:46:12;;;;;;;32.60;23.02;;;-4.90;99.90;;;;;;4949070;28;20050;-82
2023/02/08 08:48:40;;;;;;;16.88;11.75;;;-4.90;99.90;;;;;;4941481;29;20291;-82
2023/02/08 08:51:08;;;;;;;14.15;12.68;;;-4.90;99.90;;;;;;4935173;29;20051;-83
2023/02/08 08:53:36;;;;;;;13.82;12.18;;;-4.80;99.90;;;;;;4940295;29;20574;-82
2023/02/08 08:56:05;;;;;;;11.40;10.40;;;-4.80;99.90;;;;;;4911441;29;20055;-82
2023/02/08 08:58:33;;;;;;;25.13;16.33;;;-4.80;99.90;;;;;;4919773;29;20621;-81
2023/02/08 09:01:01;;;;;;;31.02;19.30;;;-4.60;99.90;;;;;;4923991;29;20055;-83
2023/02/08 09:03:29;;;;;;;19.60;13.35;;;-4.50;99.90;;;;;;4908195;29;20062;-81
2023/02/08 09:05:56;;;;;;;25.73;13.95;;;-4.40;99.90;;;;;;4915447;29;20054;-83
2023/02/08 09:08:24;;;;;;;21.10;17.52;;;-4.30;99.90;;;;;;4934923;29;20051;-82
2023/02/08 09:10:52;;;;;;;27.27;18.42;;;-4.30;99.90;;;;;;4932575;29;20082;-81
2023/02/08 09:13:20;;;;;;;16.42;14.77;;;-4.30;99.90;;;;;;4921268;28;20043;-82
2023/02/08 09:15:48;;;;;;;33.00;25.45;;;-4.20;99.90;;;;;;4944288;28;20062;-83
2023/02/08 09:18:16;;;;;;;15.88;11.75;;;-4.10;99.90;;;;;;4933017;29;20062;-82
2023/02/08 09:20:43;;;;;;;23.65;17.33;;;-3.80;99.90;;;;;;4940321;28;20062;-82
2023/02/08 09:23:13;;;;;;;9.65;8.80;;;-3.30;99.90;;;;;;4940842;28;20086;-81
2023/02/08 09:25:41;;;;;;;23.75;15.15;;;-2.20;99.90;;;;;;4925087;29;20254;-82
2023/02/08 09:28:09;;;;;;;13.43;11.75;;;-1.50;99.90;;;;;;4945116;28;20055;-82
2023/02/08 09:30:40;;;;;;;12.10;8.75;;;-1.00;99.90;;;;;;4939187;29;20055;-84
2023/02/08 09:33:09;;;;;;;12.68;10.52;;;-0.40;99.90;;;;;;4942098;28;20043;-81
2023/02/08 09:35:37;;;;;;;15.20;10.48;;;-1.00;99.90;;;;;;4942284;29;20067;-82
2023/02/08 09:38:08;;;;;;;20.67;14.60;;;-1.10;99.90;;;;;;4924473;29;20055;-82
2023/02/08 09:41:00;;;;;;;18.80;15.75;;;-0.80;99.90;;;;;;4934410;28;20054;-84
2023/02/08 09:44:02;;;;;;;11.65;8.63;;;-0.70;99.90;;;;;;4945802;29;20372;-82
2023/02/08 09:46:34;;;;;;;31.67;22.13;;;-0.80;99.90;;;;;;4912900;29;20047;-86
2023/02/08 09:49:10;;;;;;;14.63;12.48;;;-1.30;99.90;;;;;;4935522;28;20051;-84
2023/02/08 09:51:52;;;;;;;17.05;12.88;;;-1.10;99.90;;;;;;4942228;29;20055;-82
2023/02/08 09:54:27;;;;;;;10.18;6.82;;;-0.90;99.90;;;;;;4929958;28;20056;-82
2023/02/08 09:56:58;;;;;;;22.27;16.42;;;-1.40;99.90;;;;;;4934430;28;20039;-84
2023/02/08 09:59:32;;;;;;;31.45;18.08;;;-1.80;99.90;;;;;;4927147;29;20055;-85
2023/02/08 10:02:09;;;;;;;23.90;19.17;;;-2.20;99.90;;;;;;4927787;28;20062;-83
2023/02/08 10:04:56;;;;;;;26.55;20.20;;;-2.50;99.90;;;;;;4910661;29;20386;-84
2023/02/08 10:07:25;;;;;;;19.58;15.20;;;-2.70;99.90;;;;;;4935696;29;20070;-82
2023/02/08 10:10:03;;;;;;;18.58;16.70;;;-2.60;99.90;;;;;;4935979;28;20047;-81
2023/02/08 10:12:41;;;;;;;43.03;25.38;;;-2.60;99.90;;;;;;4923949;28;20054;-83
2023/02/08 10:15:25;;;;;;;21.67;16.83;;;-2.60;99.90;;;;;;4923622;29;20058;-82
2023/02/08 10:18:26;;;;;;;22.90;16.50;;;-2.60;99.90;;;;;;4926739;29;20051;-81
2023/02/08 10:21:14;;;;;;;26.20;17.33;;;-2.60;99.90;;;;;;4940264;28;20444;-84
2023/02/08 10:23:57;;;;;;;18.25;12.40;;;-2.60;99.90;;;;;;4920865;29;20066;-83
2023/02/08 10:26:36;;;;;;;17.25;12.27;;;-2.70;99.90;;;;;;4925989;29;20054;-86
2023/02/08 10:29:14;;;;;;;22.20;12.88;;;-2.60;99.90;;;;;;4940142;29;20058;-83
2023/02/08 10:32:09;;;;;;;11.50;10.25;;;-2.50;99.90;;;;;;4940924;28;20056;-83
2023/02/08 10:34:46;;;;;;;27.58;17.63;;;-2.20;99.90;;;;;;4922576;29;20051;-81
2023/02/08 10:37:19;;;;;;;41.42;32.97;;;-2.20;99.90;;;;;;4935269;29;20047;-84
2023/02/08 10:39:48;;;;;;;21.05;13.73;;;-2.30;99.90;;;;;;4926915;29;20055;-81
2023/02/08 10:42:21;;;;;;;25.80;16.73;;;-2.20;99.90;;;;;;4908218;29;20051;-82
2023/02/08 10:44:53;;;;;;;19.90;15.68;;;-2.30;99.90;;;;;;4924865;28;20051;-81
2023/02/08 10:47:35;;;;;;;15.13;13.40;;;-2.40;99.90;;;;;;4917978;29;20110;-82
2023/02/08 10:50:06;;;;;;;29.17;18.88;;;-2.30;99.90;;;;;;4921206;29;20058;-81
2023/02/08 10:52:35;;;;;;;14.27;9.93;;;-2.20;99.90;;;;;;4938832;28;20054;-81
2023/02/08 10:55:21;;;;;;;13.85;11.88;;;-1.90;99.90;;;;;;4938675;29;20071;-81
2023/02/08 10:57:55;;;;;;;28.55;19.50;;;-1.90;99.90;;;;;;4930523;29;20043;-82
2023/02/08 11:00:30;;;;;;;12.13;11.05;;;-2.10;99.90;;;;;;4926087;28;20051;-81
2023/02/08 11:03:11;;;;;;;34.90;27.02;;;-2.20;99.90;;;;;;4930321;29;20051;-83
2023/02/08 11:05:40;;;;;;;28.52;19.88;;;-2.40;99.90;;;;;;4924589;29;20039;-83
2023/02/08 11:08:14;;;;;;;41.42;31.50;;;-2.30;99.90;;;;;;4919767;29;20055;-84
2023/02/08 11:10:58;;;;;;;16.35;11.00;;;-2.40;99.90;;;;;;4910374;29;20055;-81
2023/02/08 11:13:39;;;;;;;25.10;18.67;;;-2.50;99.90;;;;;;4906192;29;20052;-82
2023/02/08 11:16:12;;;;;;;23.95;16.98;;;-2.80;99.90;;;;;;4921666;29;20070;-81
2023/02/08 11:18:47;;;;;;;15.15;13.73;;;-2.80;99.90;;;;;;4892792;29;20059;-81
2023/02/08 11:21:28;;;;;;;19.80;13.38;;;-2.70;99.90;;;;;;4907513;29;20390;-84
2023/02/08 11:23:57;;;;;;;24.25;19.25;;;-2.60;99.90;;;;;;4907474;29;20063;-82
2023/02/08 11:26:31;;;;;;;27.63;19.67;;;-2.40;99.90;;;;;;4913401;29;20040;-84
2023/02/08 11:29:18;;;;;;;17.98;16.02;;;-2.30;99.90;;;;;;4925377;29;20050;-82
2023/02/08 11:32:18;;;;;;;17.63;12.80;;;-2.40;99.90;;;;;;4915178;29;20070;-82
2023/02/08 11:34:48;;;;;;;12.27;11.20;;;-2.60;99.90;;;;;;4885535;29;20055;-81
2023/02/08 11:37:22;;;;;;;36.97;27.10;;;-2.40;99.90;;;;;;4921083;29;20050;-83
2023/02/08 11:39:54;;;;;;;30.40;17.67;;;-2.30;99.90;;;;;;4927195;29;20346;-81
2023/02/08 11:42:28;;;;;;;18.88;12.27;;;-2.30;99.90;;;;;;4912152;29;20079;-82
2023/02/08 11:44:58;;;;;;;25.98;18.52;;;-2.20;99.90;;;;;;4929899;29;20125;-81
2023/02/08 11:47:30;;;;;;;18.93;11.60;;;-2.10;99.90;;;;;;4918065;29;20051;-82
2023/02/08 11:50:05;;;;;;;23.40;16.10;;;-2.00;99.90;;;;;;4921028;29;20314;-84
2023/02/08 11:52:37;;;;;;;16.15;14.48;;;-1.80;99.90;;;;;;4915167;29;20094;-82
2023/02/08 11:55:32;;;;;;;19.77;14.35;;;-1.80;99.90;;;;;;4933085;29;20059;-83
2023/02/08 11:58:23;;;;;;;36.15;27.65;;;-1.80;99.90;;;;;;4926925;29;20334;-85
2023/02/08 12:01:19;;;;;;;23.05;17.27;;;-1.90;99.90;;;;;;4917032;29;20067;-82
2023/02/08 12:03:49;;;;;;;22.13;15.88;;;-2.10;99.90;;;;;;4932795;29;20048;-82
2023/02/08 12:06:23;;;;;;;17.85;12.15;;;-2.10;99.90;;;;;;4916166;29;20043;-83
2023/02/08 12:09:08;;;;;;;16.13;12.10;;;-2.00;99.90;;;;;;4922676;29;20040;-84
2023/02/08 12:11:42;;;;;;;17.02;10.20;;;-1.80;99.90;;;;;;4910619;29;20051;-82
2023/02/08 12:14:34;;;;;;;21.17;15.15;;;-1.70;99.90;;;;;;4933807;29;20066;-82
2023/02/08 12:17:15;;;;;;;;;;;-1.60;99.90;;;;;;4948540;29;20043;-82
2023/02/08 12:20:07;;;;;;;18.13;11.90;;;-1.80;99.90;;;;;;4925296;29;19926;-82
2023/02/08 12:22:43;;;;;;;17.38;12.52;;;-1.90;99.90;;;;;;4946557;29;20242;-82
2023/02/08 12:25:31;;;;;;;24.33;12.80;;;-1.80;99.90;;;;;;4906789;29;20043;-82
2023/02/08 12:28:23;;;;;;;22.92;14.18;;;-1.70;99.90;;;;;;4946628;29;20052;-85
2023/02/08 12:31:12;;;;;;;26.30;20.60;;;-1.70;99.90;;;;;;4933647;29;20047;-82
2023/02/08 12:33:49;;;;;;;25.35;18.67;;;-1.90;99.90;;;;;;4955099;28;20050;-84
2023/02/08 12:36:34;;;;;;;39.30;28.85;;;-1.80;99.90;;;;;;4957764;28;20061;-83
2023/02/08 12:42:53;;;;;;;34.72;23.90;;;-1.80;99.90;;;;;;4969217;28;20471;-87
2023/02/08 12:45:40;;;;;;;16.60;12.32;;;-1.60;99.90;;;;;;4957887;28;20046;-83
2023/02/08 12:48:23;;;;;;;18.58;13.93;;;-1.60;99.90;;;;;;4954339;29;20051;-82
2023/02/08 12:51:06;;;;;;;17.23;13.23;;;-1.40;99.90;;;;;;4951539;28;20253;-82
2023/02/08 12:53:44;;;;;;;21.00;14.10;;;-1.50;99.90;;;;;;4943222;29;20039;-82
2023/02/08 12:56:17;;;;;;;11.00;9.93;;;-1.60;99.90;;;;;;4966542;29;20028;-82
2023/02/08 12:58:52;;;;;;;30.85;21.20;;;-1.60;99.90;;;;;;4956705;28;20035;-83
2023/02/08 13:01:34;;;;;;;19.42;12.13;;;-1.50;99.90;;;;;;4943399;28;20051;-82
2023/02/08 13:04:22;;;;;;;22.38;15.88;;;-1.60;99.90;;;;;;4954426;28;20058;-81
2023/02/08 13:06:58;;;;;;;16.80;11.57;;;-1.60;99.90;;;;;;4904530;29;20047;-80